Time;durP1;ratioP1;P1;durP2;ratioP2;P2;SDS_P1;SDS_P2;PMS_P1;PMS_P2;Temp;Humidity;BMP_temperature;BMP_pressure;BME280_temperature;BME280_humidity;BME280_pressure;Samples;Min_cycle;Max_cycle;Signal;HPM_P1;HPM_P2
2023/07/21 00:00:18;;;;;;;0.40;0.40;;;;;;;18.20;45.75;96399.41;29396;207;63009;-54
2023/07/21 00:00:49;;;;;;;0.40;0.40;;;;;;;18.21;45.52;96395.50;29395;274;64001;-54
2023/07/21 00:01:21;;;;;;;0.40;0.40;;;;;;;18.20;45.47;96394.69;29396;301;63009;-54
2023/07/21 00:01:53;;;;;;;0.40;0.40;;;;;;;18.21;45.31;96401.00;29396;202;63004;-54
2023/07/21 00:02:26;;;;;;;0.30;0.30;;;;;;;18.21;45.42;96387.25;29395;218;64014;-54
2023/07/21 00:02:57;;;;;;;0.30;0.30;;;;;;;18.21;45.30;96390.00;29396;267;63005;-54
2023/07/21 00:03:30;;;;;;;0.40;0.40;;;;;;;18.22;45.44;96397.09;29396;227;63009;-54
2023/07/21 00:04:01;;;;;;;0.30;0.30;;;;;;;18.22;45.50;96400.62;29396;250;63005;-54
2023/07/21 00:04:32;;;;;;;0.30;0.30;;;;;;;18.23;45.50;96390.44;29396;206;63009;-55
2023/07/21 00:05:05;;;;;;;0.30;0.30;;;;;;;18.22;45.12;96391.59;29396;198;63018;-54
2023/07/21 00:05:36;;;;;;;0.30;0.30;;;;;;;18.22;45.23;96386.91;29396;213;63017;-54
2023/07/21 00:06:07;;;;;;;0.30;0.30;;;;;;;18.23;45.44;96390.44;29396;218;63005;-54
2023/07/21 00:06:42;;;;;;;0.30;0.30;;;;;;;18.22;45.80;96397.09;29396;202;63009;-54
2023/07/21 00:07:14;;;;;;;0.30;0.30;;;;;;;18.21;45.47;96390.00;29396;205;63004;-54
2023/07/21 00:07:47;;;;;;;0.30;0.30;;;;;;;18.20;45.66;96382.91;29395;222;64013;-54
2023/07/21 00:08:22;;;;;;;0.30;0.30;;;;;;;18.21;45.69;96390.00;29396;244;63004;-55
2023/07/21 00:08:54;;;;;;;0.30;0.30;;;;;;;18.22;45.62;96386.13;29396;225;63015;-60
2023/07/21 00:09:26;;;;;;;0.30;0.30;;;;;;;18.21;45.45;96390.00;29396;223;63004;-54
2023/07/21 00:09:59;;;;;;;0.30;0.30;;;;;;;18.22;45.43;96388.84;29396;203;63005;-54
2023/07/21 00:10:30;;;;;;;0.40;0.40;;;;;;;18.22;45.51;96386.13;29396;198;63005;-54
2023/07/21 00:11:02;;;;;;;0.40;0.40;;;;;;;18.21;46.24;96390.81;29395;235;64014;-61
2023/07/21 00:11:34;;;;;;;0.30;0.30;;;;;;;18.17;46.86;96386.38;29396;195;63005;-60
2023/07/21 00:12:06;;;;;;;0.30;0.30;;;;;;;18.13;46.43;96394.53;29396;203;63016;-54
2023/07/21 00:12:42;;;;;;;0.30;0.30;;;;;;;18.13;46.22;96390.97;29396;282;63005;-55
2023/07/21 00:13:14;;;;;;;0.30;0.30;;;;;;;18.14;46.11;96385.12;29396;222;63009;-54
2023/07/21 00:13:45;;;;;;;0.40;0.40;;;;;;;18.14;45.90;96390.63;29396;240;63005;-60
2023/07/21 00:14:16;;;;;;;0.40;0.40;;;;;;;18.14;45.95;96379.63;29395;299;64013;-59
2023/07/21 00:14:50;;;;;;;0.30;0.30;;;;;;;18.14;46.27;96384.34;29396;231;63004;-60
2023/07/21 00:15:21;;;;;;;0.40;0.40;;;;;;;18.15;45.64;96385.94;29395;260;64005;-54
2023/07/21 00:15:53;;;;;;;0.40;0.40;;;;;;;18.14;45.58;96385.12;29396;199;63004;-61
2023/07/21 00:16:27;;;;;;;0.40;0.40;;;;;;;18.13;44.96;96383.53;29396;211;63008;-61
2023/07/21 00:16:58;;;;;;;0.40;0.40;;;;;;;18.13;45.40;96377.25;29396;203;63004;-59
2023/07/21 00:17:30;;;;;;;0.40;0.40;;;;;;;18.08;45.60;96378.31;29397;283;63009;-61
2023/07/21 00:18:03;;;;;;;0.40;0.40;;;;;;;18.05;45.59;96382.53;29397;216;63015;-60
2023/07/21 00:18:35;;;;;;;0.40;0.40;;;;;;;18.04;45.62;96386.44;29397;240;63009;-61
2023/07/21 00:19:10;;;;;;;0.40;0.40;;;;;;;18.03;46.02;96378.56;29397;253;63013;-60
2023/07/21 00:19:44;;;;;;;0.40;0.40;;;;;;;18.04;46.22;96377.41;29396;255;64013;-53
2023/07/21 00:20:21;;;;;;;0.40;0.40;;;;;;;18.03;45.91;96379.34;29397;235;63005;-54
2023/07/21 00:20:52;;;;;;;0.40;0.40;;;;;;;18.03;45.71;96384.84;29397;220;63009;-54
2023/07/21 00:21:24;;;;;;;0.40;0.40;;;;;;;18.02;46.25;96386.00;29397;220;63004;-54
2023/07/21 00:21:56;;;;;;;0.30;0.30;;;;;;;18.00;45.67;96385.59;29397;227;63009;-54
2023/07/21 00:22:28;;;;;;;0.40;0.40;;;;;;;17.99;45.31;96384.00;29396;201;64009;-54
2023/07/21 00:22:59;;;;;;;0.40;0.40;;;;;;;17.99;45.79;96377.69;29397;237;63009;-54
2023/07/21 00:23:31;;;;;;;0.30;0.30;;;;;;;17.98;45.81;96382.38;29396;230;64009;-55
2023/07/21 00:24:04;;;;;;;0.40;0.40;;;;;;;17.97;45.59;96380.78;29397;199;63008;-55
2023/07/21 00:24:35;;;;;;;0.40;0.40;;;;;;;17.95;46.19;96380.34;29397;230;63004;-54
2023/07/21 00:25:10;;;;;;;0.32;0.32;;;;;;;17.93;46.41;96385.38;29397;224;63009;-54
2023/07/21 00:25:45;;;;;;;0.30;0.30;;;;;;;17.91;47.13;96395.91;29397;239;63005;-54
2023/07/21 00:26:20;;;;;;;0.30;0.30;;;;;;;17.89;47.55;96400.16;29397;242;63009;-54
2023/07/21 00:26:53;;;;;;;0.30;0.30;;;;;;;17.87;47.84;96399.72;29397;239;63005;-54
2023/07/21 00:27:24;;;;;;;0.40;0.40;;;;;;;17.84;47.51;96403.97;29397;311;63009;-56
2023/07/21 00:27:56;;;;;;;0.30;0.30;;;;;;;17.82;47.45;96392.53;29396;203;64009;-54
2023/07/21 00:28:27;;;;;;;0.30;0.30;;;;;;;17.79;47.87;96401.47;29397;220;63009;-54
2023/07/21 00:28:58;;;;;;;0.40;0.40;;;;;;;17.78;48.01;96394.38;29397;237;63004;-54
2023/07/21 00:29:29;;;;;;;0.30;0.30;;;;;;;17.78;47.23;96394.38;29396;196;64013;-60
2023/07/21 00:30:08;;;;;;;0.30;0.30;;;;;;;17.79;47.26;96389.69;29397;213;63004;-54
2023/07/21 00:30:45;;;;;;;0.30;0.30;;;;;;;17.79;46.91;96395.97;29396;198;63009;-54
2023/07/21 00:31:16;;;;;;;0.40;0.40;;;;;;;17.78;46.80;96393.59;29396;263;63006;-54
2023/07/21 00:31:49;;;;;;;0.30;0.30;;;;;;;17.78;46.73;96388.91;29396;237;63008;-54
2023/07/21 00:32:22;;;;;;;0.30;0.30;;;;;;;17.78;46.89;96394.38;29397;257;63005;-54
2023/07/21 00:32:53;;;;;;;0.30;0.30;;;;;;;17.80;46.86;96385.81;29396;202;63018;-53
2023/07/21 00:33:28;;;;;;;0.30;0.30;;;;;;;17.78;46.94;96388.91;29396;202;63005;-54
2023/07/21 00:34:00;;;;;;;0.30;0.30;;;;;;;17.79;46.82;96389.69;29396;242;63009;-54
2023/07/21 00:34:31;;;;;;;0.30;0.30;;;;;;;17.79;46.90;96385.00;29395;220;64009;-54
2023/07/21 00:35:12;;;;;;;0.30;0.30;;;;;;;17.78;46.82;96388.91;29396;220;63016;-55
2023/07/21 00:35:44;;;;;;;0.30;0.30;;;;;;;17.78;46.68;96386.16;29396;208;63005;-55
2023/07/21 00:36:15;;;;;;;0.30;0.30;;;;;;;17.78;46.78;96393.59;29396;313;63016;-61
2023/07/21 00:36:46;;;;;;;0.32;0.32;;;;;;;17.77;47.25;96381.81;29395;203;64009;-54
2023/07/21 00:37:17;;;;;;;0.40;0.40;;;;;;;17.79;46.76;96387.75;29397;230;63009;-56
2023/07/21 00:37:49;;;;;;;0.37;0.37;;;;;;;17.78;46.92;96386.16;29397;197;63004;-54
2023/07/21 00:38:21;;;;;;;0.40;0.40;;;;;;;17.77;46.53;96392.00;29395;206;64009;-54
2023/07/21 00:38:52;;;;;;;0.30;0.30;;;;;;;17.76;46.88;96385.69;29396;202;63004;-55
2023/07/21 00:39:23;;;;;;;0.40;0.40;;;;;;;17.76;47.22;96391.19;29395;244;64013;-55
2023/07/21 00:39:55;;;;;;;0.40;0.40;;;;;;;17.75;46.97;96390.41;29396;199;63005;-56
2023/07/21 00:40:26;;;;;;;0.40;0.40;;;;;;;17.75;46.89;96392.34;29396;289;63009;-54
2023/07/21 00:40:57;;;;;;;0.30;0.30;;;;;;;17.75;46.81;96387.66;29397;222;63017;-55
2023/07/21 00:41:28;;;;;;;0.30;0.30;;;;;;;17.75;46.61;96395.87;29396;314;63009;-54
2023/07/21 00:42:00;;;;;;;0.30;0.30;;;;;;;17.75;47.12;96400.56;29396;221;63005;-53
2023/07/21 00:42:32;;;;;;;0.30;0.30;;;;;;;17.75;46.71;96392.34;29396;202;63009;-54
2023/07/21 00:43:04;;;;;;;0.30;0.30;;;;;;;17.73;46.99;96389.94;29396;331;63005;-55
2023/07/21 00:43:35;;;;;;;0.30;0.30;;;;;;;17.73;46.87;96386.41;29396;284;63009;-54
2023/07/21 00:44:08;;;;;;;0.30;0.30;;;;;;;17.74;47.21;96394.28;29396;205;63018;-54
2023/07/21 00:44:39;;;;;;;0.40;0.40;;;;;;;17.73;47.65;96386.41;29395;232;64002;-54
2023/07/21 00:45:13;;;;;;;0.30;0.30;;;;;;;17.73;47.30;96394.63;29396;197;63004;-60
2023/07/21 00:45:49;;;;;;;0.32;0.32;;;;;;;17.73;47.32;96391.88;29398;213;63009;-54
2023/07/21 00:46:21;;;;;;;0.40;0.40;;;;;;;17.72;47.07;96395.78;29396;208;63006;-54
2023/07/21 00:46:53;;;;;;;0.40;0.40;;;;;;;17.71;47.40;96397.72;29396;216;63008;-54
2023/07/21 00:47:25;;;;;;;0.40;0.40;;;;;;;17.72;47.50;96395.78;29396;209;63005;-54
2023/07/21 00:47:56;;;;;;;0.40;0.40;;;;;;;17.73;47.44;96397.38;29396;264;63009;-56
2023/07/21 00:48:27;;;;;;;0.40;0.40;;;;;;;17.72;47.71;96391.09;29395;232;64009;-55
2023/07/21 00:48:59;;;;;;;0.40;0.40;;;;;;;17.74;47.68;96390.75;29396;204;63009;-54
2023/07/21 00:49:32;;;;;;;0.32;0.32;;;;;;;17.74;47.60;96394.28;29396;223;63010;-54
2023/07/21 00:50:04;;;;;;;0.40;0.40;;;;;;;17.76;47.43;96396.69;29396;206;63009;-54
2023/07/21 00:50:45;;;;;;;0.40;0.40;;;;;;;17.76;47.64;96393.94;29396;206;63005;-54
2023/07/21 00:51:18;;;;;;;0.30;0.30;;;;;;;17.76;47.58;96382.97;29417;290;64013;-54
2023/07/21 00:51:49;;;;;;;0.40;0.40;;;;;;;17.76;47.79;96391.19;29375;218;63004;-55
2023/07/21 00:52:20;;;;;;;0.40;0.40;;;;;;;17.75;47.40;96384.09;29396;249;63009;-55
2023/07/21 00:52:52;;;;;;;0.40;0.40;;;;;;;17.76;47.67;96388.44;29396;232;63004;-54
2023/07/21 00:53:24;;;;;;;0.37;0.37;;;;;;;17.75;47.70;96389.59;29396;202;63008;-54
2023/07/21 00:53:56;;;;;;;0.40;0.40;;;;;;;17.75;47.63;96395.09;29395;229;64008;-54
2023/07/21 00:54:28;;;;;;;0.30;0.30;;;;;;;17.75;47.46;96386.84;29396;196;63008;-55
2023/07/21 00:54:59;;;;;;;0.30;0.30;;;;;;;17.74;47.60;96388.78;29396;207;63005;-54
2023/07/21 00:55:31;;;;;;;0.40;0.40;;;;;;;17.74;47.22;96386.06;29396;217;63016;-54
2023/07/21 00:56:04;;;;;;;0.40;0.40;;;;;;;17.75;47.62;96389.59;29395;197;64009;-55
2023/07/21 00:56:36;;;;;;;0.40;0.40;;;;;;;17.75;47.37;96384.09;29396;280;63009;-55
2023/07/21 00:57:08;;;;;;;0.40;0.40;;;;;;;17.75;47.80;96392.34;29396;227;63005;-56
2023/07/21 00:57:39;;;;;;;0.30;0.30;;;;;;;17.73;47.31;96392.69;29396;198;63009;-54
2023/07/21 00:58:11;;;;;;;0.35;0.35;;;;;;;17.74;47.49;96383.31;29396;202;63005;-54
2023/07/21 00:58:45;;;;;;;0.40;0.40;;;;;;;17.75;47.23;96386.84;29395;207;64013;-54
2023/07/21 00:59:17;;;;;;;0.40;0.40;;;;;;;17.75;47.36;96381.37;29396;202;63004;-53
2023/07/21 00:59:49;;;;;;;0.30;0.30;;;;;;;17.75;46.69;96384.09;29396;232;63016;-55
2023/07/21 01:00:21;;;;;;;0.40;0.40;;;;;;;17.73;46.91;96381.72;29396;234;63004;-57
2023/07/21 01:00:52;;;;;;;0.30;0.30;;;;;;;17.75;47.09;96384.09;29396;240;63008;-60
2023/07/21 01:01:24;;;;;;;0.30;0.30;;;;;;;17.75;47.63;96389.59;29397;234;63015;-54
2023/07/21 01:01:56;;;;;;;0.40;0.40;;;;;;;17.75;47.19;96384.91;29396;246;63009;-54
2023/07/21 01:02:27;;;;;;;0.40;0.40;;;;;;;17.76;47.64;96385.69;29396;267;63005;-54
2023/07/21 01:03:00;;;;;;;0.35;0.35;;;;;;;17.78;47.36;96383.41;29396;204;63017;-54
2023/07/21 01:03:35;;;;;;;0.40;0.40;;;;;;;17.79;47.34;96381.47;29395;216;64009;-55
2023/07/21 01:04:07;;;;;;;0.35;0.35;;;;;;;17.78;47.53;96377.91;29395;247;64013;-54
2023/07/21 01:04:39;;;;;;;0.40;0.40;;;;;;;17.83;47.50;96390.59;29396;229;63005;-54
2023/07/21 01:05:12;;;;;;;0.40;0.40;;;;;;;17.81;48.22;96388.19;29396;207;63009;-54
2023/07/21 01:05:49;;;;;;;0.30;0.30;;;;;;;17.80;47.30;96370.12;29397;203;63005;-59
2023/07/21 01:06:27;;;;;;;0.37;0.37;;;;;;;17.81;47.49;96376.41;29396;196;63009;-54
2023/07/21 01:06:59;;;;;;;0.40;0.40;;;;;;;17.81;47.52;96374.47;29395;276;64009;-60
2023/07/21 01:07:35;;;;;;;0.40;0.40;;;;;;;17.82;47.48;96375.28;29396;211;63009;-54
2023/07/21 01:08:07;;;;;;;0.30;0.30;;;;;;;17.83;47.21;96379.63;29396;204;63015;-55
2023/07/21 01:08:39;;;;;;;0.40;0.40;;;;;;;17.83;47.11;96380.41;29397;204;63008;-54
2023/07/21 01:09:12;;;;;;;0.40;0.40;;;;;;;17.84;47.31;96376.50;29396;233;63005;-54
2023/07/21 01:09:45;;;;;;;0.40;0.40;;;;;;;17.86;47.14;96373.41;29396;258;63009;-60
2023/07/21 01:10:17;;;;;;;0.40;0.40;;;;;;;17.86;47.18;96376.97;29396;261;63013;-60
2023/07/21 01:10:51;;;;;;;0.40;0.40;;;;;;;17.87;47.51;96375.81;29395;199;64014;-54
2023/07/21 01:11:24;;;;;;;0.40;0.40;;;;;;;17.86;47.40;96374.22;29396;219;63005;-55
2023/07/21 01:11:55;;;;;;;0.40;0.40;;;;;;;17.87;47.55;96381.31;29396;203;63009;-53
2023/07/21 01:12:27;;;;;;;0.40;0.40;;;;;;;17.87;48.24;96377.75;29396;213;63005;-60
2023/07/21 01:12:58;;;;;;;0.40;0.40;;;;;;;17.87;47.54;96369.53;29396;234;63009;-55
2023/07/21 01:13:31;;;;;;;0.40;0.40;;;;;;;17.88;47.92;96382.91;29397;259;63004;-52
2023/07/21 01:14:05;;;;;;;0.30;0.30;;;;;;;17.87;47.62;96375.81;29396;231;63009;-54
2023/07/21 01:14:37;;;;;;;0.40;0.40;;;;;;;17.88;47.53;96376.62;29396;255;63004;-55
2023/07/21 01:15:09;;;;;;;0.40;0.40;;;;;;;17.88;47.33;96376.62;29396;218;63009;-55
2023/07/21 01:15:48;;;;;;;0.40;0.40;;;;;;;17.89;47.36;96373.50;29395;217;64009;-54
2023/07/21 01:16:23;;;;;;;0.40;0.40;;;;;;;17.90;47.35;96375.13;29396;232;63008;-54
2023/07/21 01:16:58;;;;;;;0.40;0.40;;;;;;;17.90;47.76;96369.62;29396;210;63005;-56
2023/07/21 01:17:30;;;;;;;0.40;0.40;;;;;;;17.92;47.45;96372.00;29396;242;63009;-54
2023/07/21 01:18:02;;;;;;;0.40;0.40;;;;;;;17.92;47.68;96372.00;29396;249;63005;-54
2023/07/21 01:18:36;;;;;;;0.40;0.40;;;;;;;17.92;47.69;96367.31;29396;223;63009;-54
2023/07/21 01:19:14;;;;;;;0.40;0.40;;;;;;;17.93;47.73;96373.63;29395;235;64009;-54
2023/07/21 01:19:49;;;;;;;0.40;0.40;;;;;;;17.93;47.63;96368.91;29397;258;63009;-54
2023/07/21 01:20:23;;;;;;;0.40;0.40;;;;;;;17.94;48.06;96369.72;29397;210;63005;-55
2023/07/21 01:20:56;;;;;;;0.37;0.37;;;;;;;17.95;47.70;96371.31;29397;218;63009;-54
2023/07/21 01:21:51;;;;;;;0.30;0.30;;;;;;;17.95;47.64;96366.63;29397;389;63004;-55
2023/07/21 01:22:28;;;;;;;0.30;0.30;;;;;;;17.97;47.75;96363.53;29397;199;63009;-58
2023/07/21 01:23:11;;;;;;;0.40;0.40;;;;;;;17.96;47.56;96368.22;29397;202;63004;-53
2023/07/21 01:23:56;;;;;;;0.30;0.30;;;;;;;17.97;47.45;96369.81;29395;202;63008;-53
2023/07/21 01:25:07;;;;;;;0.40;0.40;;;;;;;17.96;47.26;96368.22;29395;199;63009;-53
2023/07/21 01:25:42;;;;;;;0.40;0.40;;;;;;;17.96;47.62;96362.72;29395;231;63009;-53
2023/07/21 01:26:14;;;;;;;0.40;0.40;;;;;;;17.96;47.68;96365.47;29395;218;63005;-53
2023/07/21 01:26:48;;;;;;;0.30;0.30;;;;;;;17.96;47.66;96362.72;29395;202;63009;-55
2023/07/21 01:27:23;;;;;;;0.40;0.40;;;;;;;17.98;47.66;96363.19;29393;197;64009;-54
2023/07/21 01:27:55;;;;;;;0.37;0.37;;;;;;;17.97;47.79;96355.28;29395;267;63015;-53
2023/07/21 01:28:29;;;;;;;0.30;0.30;;;;;;;17.96;47.62;96354.50;29395;242;63005;-53
2023/07/21 01:29:00;;;;;;;0.40;0.40;;;;;;;17.96;47.79;96356.44;29395;208;63009;-53
2023/07/21 01:29:34;;;;;;;0.30;0.30;;;;;;;17.96;48.54;96361.94;29395;212;63004;-53
2023/07/21 01:30:12;;;;;;;0.32;0.32;;;;;;;17.94;48.49;96348.56;29394;262;63009;-58
2023/07/21 01:30:48;;;;;;;0.30;0.30;;;;;;;17.94;48.13;96356.78;29393;210;64009;-53
2023/07/21 01:31:20;;;;;;;0.40;0.40;;;;;;;17.94;47.96;96351.31;29395;233;63025;-53
2023/07/21 01:31:53;;;;;;;0.30;0.30;;;;;;;17.95;47.62;96350.16;29395;206;63005;-53
2023/07/21 01:32:25;;;;;;;0.30;0.30;;;;;;;17.95;48.18;96347.41;29393;214;64014;-54
2023/07/21 01:32:59;;;;;;;0.30;0.30;;;;;;;17.96;47.68;96354.50;29395;210;63005;-54
2023/07/21 01:33:32;;;;;;;0.40;0.40;;;;;;;17.95;47.82;96352.91;29395;220;63009;-53
2023/07/21 01:34:06;;;;;;;0.30;0.30;;;;;;;17.95;47.71;96350.16;29394;219;64005;-54
2023/07/21 01:34:38;;;;;;;0.30;0.30;;;;;;;17.96;47.49;96345.47;29395;219;63009;-54
2023/07/21 01:35:12;;;;;;;0.30;0.30;;;;;;;17.96;47.63;96349.00;29393;199;64009;-54
2023/07/21 01:35:48;;;;;;;0.40;0.40;;;;;;;17.97;47.79;96352.53;29395;222;63027;-54
2023/07/21 01:36:20;;;;;;;0.40;0.40;;;;;;;17.96;47.67;96346.25;29395;242;63004;-54
2023/07/21 01:36:52;;;;;;;0.30;0.30;;;;;;;17.97;47.50;96342.37;29395;238;63009;-54
2023/07/21 01:37:25;;;;;;;0.30;0.30;;;;;;;17.96;47.81;96349.00;29395;226;63004;-54
2023/07/21 01:37:57;;;;;;;0.30;0.30;;;;;;;17.97;47.60;96345.09;29395;222;63009;-54
2023/07/21 01:38:30;;;;;;;0.30;0.30;;;;;;;17.97;47.85;96341.56;29395;214;63004;-54
2023/07/21 01:39:01;;;;;;;0.30;0.30;;;;;;;17.95;47.96;96344.66;29393;196;64013;-52
2023/07/21 01:39:35;;;;;;;0.30;0.30;;;;;;;17.95;47.96;96347.41;29395;206;63005;-55
2023/07/21 01:40:13;;;;;;;0.30;0.30;;;;;;;17.94;48.25;96348.56;29395;226;63009;-59
2023/07/21 01:40:46;;;;;;;0.30;0.30;;;;;;;17.94;48.40;96347.75;29395;237;63015;-59
2023/07/21 01:41:17;;;;;;;0.40;0.40;;;;;;;17.90;48.63;96347.66;29395;207;63009;-60
2023/07/21 01:41:49;;;;;;;0.30;0.30;;;;;;;17.90;48.16;96357.84;29394;261;64005;-53
2023/07/21 01:42:25;;;;;;;0.40;0.40;;;;;;;17.89;48.08;96351.56;29395;242;63009;-53
2023/07/21 01:42:57;;;;;;;0.30;0.30;;;;;;;17.87;48.26;96348.38;29395;222;63016;-53
2023/07/21 01:43:28;;;;;;;0.30;0.30;;;;;;;17.88;48.29;96355.47;29395;206;63009;-55
2023/07/21 01:43:59;;;;;;;0.30;0.30;;;;;;;17.87;48.26;96353.84;29393;218;64009;-54
2023/07/21 01:44:31;;;;;;;0.30;0.30;;;;;;;17.87;49.16;96359.34;29393;202;64013;-54
2023/07/21 01:45:04;;;;;;;0.30;0.30;;;;;;;17.85;48.73;96350.66;29395;203;63004;-53
2023/07/21 01:45:35;;;;;;;0.30;0.30;;;;;;;17.84;48.85;96359.25;29395;239;63012;-54
2023/07/21 01:46:10;;;;;;;0.30;0.30;;;;;;;17.82;48.80;96351.38;29395;222;63004;-53
2023/07/21 01:46:42;;;;;;;0.30;0.30;;;;;;;17.82;48.75;96351.38;29395;228;63008;-52
2023/07/21 01:47:13;;;;;;;0.30;0.30;;;;;;;17.81;48.66;96348.97;29395;197;63005;-54
2023/07/21 01:47:48;;;;;;;0.30;0.30;;;;;;;17.79;48.82;96354.81;29395;330;63009;-53
2023/07/21 01:48:19;;;;;;;0.30;0.30;;;;;;;17.79;49.75;96356.75;29395;229;63009;-54
2023/07/21 01:48:50;;;;;;;0.37;0.37;;;;;;;17.78;49.70;96350.47;29395;251;63021;-53
2023/07/21 01:49:22;;;;;;;0.30;0.30;;;;;;;17.76;49.43;96350.03;29393;206;64009;-53
2023/07/21 01:49:54;;;;;;;0.30;0.30;;;;;;;17.75;49.42;96351.19;29395;207;63009;-59
2023/07/21 01:50:27;;;;;;;0.30;0.30;;;;;;;17.73;49.38;96348.00;29395;264;63010;-54
2023/07/21 01:51:03;;;;;;;0.40;0.40;;;;;;;17.72;49.44;96341.69;29393;253;64013;-54
2023/07/21 01:51:37;;;;;;;0.40;0.40;;;;;;;17.69;49.30;96352.59;29395;281;63009;-54
2023/07/21 01:52:08;;;;;;;0.30;0.30;;;;;;;17.67;49.11;96347.44;29395;204;63016;-54
2023/07/21 01:52:41;;;;;;;0.40;0.40;;;;;;;17.66;49.73;96347.81;29395;234;63008;-54
2023/07/21 01:53:18;;;;;;;0.40;0.40;;;;;;;17.65;49.03;96347.03;29393;215;64013;-57
2023/07/21 01:54:04;;;;;;;0.30;0.30;;;;;;;17.65;49.65;96348.97;29395;199;63007;-54
2023/07/21 01:54:53;;;;;;;0.40;0.40;;;;;;;17.65;50.44;96357.19;29395;203;63009;-55
2023/07/21 01:55:57;;;;;;;0.40;0.40;;;;;;;17.62;49.59;96346.91;29395;203;63005;-53
2023/07/21 01:56:47;;;;;;;0.40;0.40;;;;;;;17.63;49.37;96343.00;29395;234;63009;-54
2023/07/21 01:57:26;;;;;;;0.40;0.40;;;;;;;17.63;49.12;96351.25;29394;220;64009;-54
2023/07/21 01:58:05;;;;;;;0.40;0.40;;;;;;;17.63;49.60;96348.50;29395;228;63009;-54
2023/07/21 01:58:39;;;;;;;0.30;0.30;;;;;;;17.63;49.24;96348.50;29395;268;63009;-55
2023/07/21 01:59:12;;;;;;;0.30;0.30;;;;;;;17.61;49.40;96348.84;29395;229;63024;-55
2023/07/21 01:59:46;;;;;;;0.30;0.30;;;;;;;17.59;48.93;96342.91;29395;270;63004;-55
2023/07/21 02:00:20;;;;;;;0.30;0.30;;;;;;;17.58;49.54;96344.06;29395;204;63009;-55
2023/07/21 02:00:51;;;;;;;0.35;0.35;;;;;;;17.58;49.41;96346.00;29395;227;63007;-54
2023/07/21 02:01:24;;;;;;;0.30;0.30;;;;;;;17.60;49.13;96343.72;29394;226;64014;-61
2023/07/21 02:01:57;;;;;;;0.30;0.30;;;;;;;17.61;49.32;96343.34;29395;236;63005;-54
2023/07/21 02:02:29;;;;;;;0.30;0.30;;;;;;;17.61;50.09;96346.09;29395;220;63009;-54
2023/07/21 02:03:01;;;;;;;0.30;0.30;;;;;;;17.61;49.92;96337.06;29395;285;63005;-54
2023/07/21 02:03:33;;;;;;;0.35;0.35;;;;;;;17.62;49.72;96346.91;29395;197;63009;-54
2023/07/21 02:04:05;;;;;;;0.40;0.40;;;;;;;17.62;49.62;96341.41;29395;202;63005;-54
2023/07/21 02:04:38;;;;;;;0.30;0.30;;;;;;;17.63;49.72;96348.50;29395;220;63025;-54
2023/07/21 02:05:23;;;;;;;0.40;0.40;;;;;;;17.63;49.64;96337.53;29395;213;63005;-54
2023/07/21 02:05:54;;;;;;;0.40;0.40;;;;;;;17.64;49.36;96344.59;29395;212;63009;-55
2023/07/21 02:06:26;;;;;;;0.32;0.32;;;;;;;17.65;49.06;96346.22;29394;199;64009;-54
2023/07/21 02:06:57;;;;;;;0.40;0.40;;;;;;;17.65;49.03;96341.53;29395;235;63009;-55
2023/07/21 02:07:29;;;;;;;0.40;0.40;;;;;;;17.66;48.95;96334.09;29395;196;63004;-53
2023/07/21 02:08:00;;;;;;;0.30;0.30;;;;;;;17.67;49.35;96332.97;29395;196;63004;-53
2023/07/21 02:08:32;;;;;;;0.40;0.40;;;;;;;17.68;49.06;96337.28;29394;266;64008;-59
2023/07/21 02:09:03;;;;;;;0.30;0.30;;;;;;;17.68;49.19;96340.81;29395;209;63009;-55
2023/07/21 02:09:34;;;;;;;0.40;0.40;;;;;;;17.69;48.50;96336.13;29395;198;63005;-54
2023/07/21 02:10:06;;;;;;;0.40;0.40;;;;;;;17.70;48.65;96338.50;29395;205;63009;-54
2023/07/21 02:10:41;;;;;;;0.40;0.40;;;;;;;17.71;49.26;96333.81;29395;207;63005;-54
2023/07/21 02:11:12;;;;;;;0.30;0.30;;;;;;;17.70;49.17;96338.50;29395;220;63009;-55
2023/07/21 02:11:44;;;;;;;0.30;0.30;;;;;;;17.71;49.32;96337.38;29395;280;63005;-55
2023/07/21 02:12:16;;;;;;;0.40;0.40;;;;;;;17.72;49.05;96335.41;29395;217;63009;-56
2023/07/21 02:12:47;;;;;;;0.37;0.37;;;;;;;17.73;48.87;96331.53;29394;243;64009;-56
2023/07/21 02:13:18;;;;;;;0.40;0.40;;;;;;;17.73;49.33;96326.84;29394;261;64013;-55
2023/07/21 02:13:50;;;;;;;0.30;0.30;;;;;;;17.72;49.04;96330.72;29394;225;64009;-54
2023/07/21 02:14:22;;;;;;;0.40;0.40;;;;;;;17.69;47.97;96325.16;29394;205;64013;-55
2023/07/21 02:14:53;;;;;;;0.30;0.30;;;;;;;17.69;48.86;96330.62;29395;238;63011;-56
2023/07/21 02:15:24;;;;;;;0.30;0.30;;;;;;;17.66;48.69;96336.84;29395;272;63008;-55
2023/07/21 02:15:59;;;;;;;0.30;0.30;;;;;;;17.64;49.33;96334.44;29395;203;63005;-59
2023/07/21 02:16:30;;;;;;;0.40;0.40;;;;;;;17.62;49.06;96330.44;29395;287;63009;-54
2023/07/21 02:17:02;;;;;;;0.40;0.40;;;;;;;17.59;49.55;96337.41;29395;200;63015;-55
2023/07/21 02:17:33;;;;;;;0.40;0.40;;;;;;;17.57;49.61;96338.91;29395;237;63009;-54
2023/07/21 02:18:04;;;;;;;0.40;0.40;;;;;;;17.57;49.20;96338.91;29394;232;64009;-54
2023/07/21 02:18:38;;;;;;;0.37;0.37;;;;;;;17.57;49.34;96336.97;29395;212;63009;-54
2023/07/21 02:19:09;;;;;;;0.35;0.35;;;;;;;17.58;49.64;96340.50;29395;248;63005;-54
2023/07/21 02:19:40;;;;;;;0.30;0.30;;;;;;;17.58;49.47;96335.03;29395;222;63025;-55
2023/07/21 02:20:14;;;;;;;0.40;0.40;;;;;;;17.57;49.53;96334.22;29395;218;63011;-56
2023/07/21 02:20:45;;;;;;;0.40;0.40;;;;;;;17.60;49.75;96339.03;29395;298;63009;-55
2023/07/21 02:21:16;;;;;;;0.40;0.40;;;;;;;17.60;50.14;96336.28;29395;269;63004;-54
2023/07/21 02:21:47;;;;;;;0.30;0.30;;;;;;;17.61;49.82;96337.06;29395;224;63009;-54
2023/07/21 02:22:19;;;;;;;0.30;0.30;;;;;;;17.60;49.85;96336.28;29395;240;63014;-54
2023/07/21 02:22:50;;;;;;;0.30;0.30;;;;;;;17.61;49.57;96331.59;29395;206;63008;-60
2023/07/21 02:23:22;;;;;;;0.30;0.30;;;;;;;17.62;50.11;96338.66;29394;263;64009;-55
2023/07/21 02:23:54;;;;;;;0.30;0.30;;;;;;;17.61;49.69;96340.63;29395;200;63019;-54
2023/07/21 02:24:25;;;;;;;0.40;0.40;;;;;;;17.58;49.11;96335.03;29395;203;63005;-54
2023/07/21 02:24:56;;;;;;;0.30;0.30;;;;;;;17.56;49.75;96326.34;29395;213;63009;-54
2023/07/21 02:25:27;;;;;;;0.30;0.30;;;;;;;17.52;49.39;96333.69;29395;202;63005;-54
2023/07/21 02:25:59;;;;;;;0.30;0.30;;;;;;;17.50;49.01;96328.53;29395;218;63009;-61
2023/07/21 02:26:32;;;;;;;0.40;0.40;;;;;;;17.47;49.73;96333.94;29395;263;63005;-60
2023/07/21 02:27:04;;;;;;;0.30;0.30;;;;;;;17.46;49.98;96332.34;29395;206;63009;-55
2023/07/21 02:27:35;;;;;;;0.30;0.30;;;;;;;17.45;50.25;96333.50;29395;202;63004;-54
2023/07/21 02:28:08;;;;;;;0.30;0.30;;;;;;;17.41;49.86;96328.69;29395;203;63009;-54
2023/07/21 02:28:39;;;;;;;0.30;0.30;;;;;;;17.43;49.92;96333.84;29394;198;64009;-54
2023/07/21 02:29:10;;;;;;;0.30;0.30;;;;;;;17.45;49.59;96337.03;29395;222;63009;-54
2023/07/21 02:29:46;;;;;;;0.30;0.30;;;;;;;17.45;49.38;96337.03;29395;210;63004;-60
2023/07/21 02:30:17;;;;;;;0.40;0.40;;;;;;;17.44;49.86;96332.69;29395;199;63008;-54
2023/07/21 02:31:02;;;;;;;0.40;0.40;;;;;;;17.41;49.46;96325.16;29395;203;63005;-55
2023/07/21 02:31:33;;;;;;;0.40;0.40;;;;;;;17.41;50.32;96336.94;29395;379;63018;-53
2023/07/21 02:32:05;;;;;;;0.40;0.40;;;;;;;17.41;51.05;96334.19;29395;246;63005;-54
2023/07/21 02:32:36;;;;;;;0.40;0.40;;;;;;;17.42;50.10;96337.72;29395;204;63009;-59
2023/07/21 02:33:08;;;;;;;0.40;0.40;;;;;;;17.41;51.05;96334.19;29395;243;63005;-52
2023/07/21 02:33:39;;;;;;;0.40;0.40;;;;;;;17.38;49.75;96326.66;29394;208;64013;-53
2023/07/21 02:34:11;;;;;;;0.40;0.40;;;;;;;17.37;50.46;96336.03;29395;211;63005;-52
2023/07/21 02:34:42;;;;;;;0.30;0.30;;;;;;;17.37;49.94;96336.03;29395;265;63009;-60
2023/07/21 02:35:13;;;;;;;0.30;0.30;;;;;;;17.36;50.39;96330.88;29395;203;63004;-53
2023/07/21 02:35:45;;;;;;;0.32;0.32;;;;;;;17.38;51.11;96345.84;29395;235;63009;-54
2023/07/21 02:36:16;;;;;;;5.62;5.43;;;;;;;17.38;51.20;96339.56;29394;220;64004;-54
2023/07/21 02:36:47;;;;;;;0.40;0.40;;;;;;;17.37;51.47;96336.03;29395;202;63009;-54
2023/07/21 02:37:18;;;;;;;0.40;0.40;;;;;;;17.37;51.58;96336.03;29395;210;63004;-55
2023/07/21 02:37:49;;;;;;;0.40;0.40;;;;;;;17.37;51.24;96341.50;29395;220;63008;-55
2023/07/21 02:38:21;;;;;;;0.40;0.40;;;;;;;17.38;51.64;96347.78;29395;214;63005;-54